createdAt,value
2022-08-25T00:02:02.027Z,21.10
2022-08-25T00:04:30.517Z,21.10
2022-08-25T00:07:02.785Z,21.10
2022-08-25T00:09:31.607Z,21.10
2022-08-25T00:11:59.449Z,21.10
2022-08-25T00:14:30.821Z,21.00
2022-08-25T00:16:58.873Z,21.00
2022-08-25T00:19:29.778Z,21.00
2022-08-25T00:21:56.666Z,21.00
2022-08-25T00:24:24.427Z,21.00
2022-08-25T00:26:54.970Z,21.00
2022-08-25T00:29:23.216Z,20.90
2022-08-25T00:31:49.973Z,20.90
2022-08-25T00:34:22.159Z,20.90
2022-08-25T00:36:51.658Z,20.80
2022-08-25T00:39:21.071Z,20.80
2022-08-25T00:41:50.318Z,20.80
2022-08-25T00:44:18.767Z,20.80
2022-08-25T00:46:58.213Z,20.80
2022-08-25T00:49:33.762Z,20.70
2022-08-25T00:52:08.558Z,20.70
2022-08-25T00:54:45.670Z,20.70
2022-08-25T00:57:14.880Z,20.70
2022-08-25T00:59:43.391Z,20.70
2022-08-25T01:02:13.975Z,20.70
2022-08-25T01:04:47.212Z,20.60
2022-08-25T01:07:18.627Z,20.60
2022-08-25T01:09:47.693Z,20.50
2022-08-25T01:12:14.715Z,20.50
2022-08-25T01:14:42.283Z,20.50
2022-08-25T01:17:09.562Z,20.50
2022-08-25T01:19:36.341Z,20.40
2022-08-25T01:22:03.767Z,20.40
2022-08-25T01:24:44.931Z,20.40
2022-08-25T01:27:11.999Z,20.40
2022-08-25T01:29:39.165Z,20.30
2022-08-25T01:32:10.239Z,20.30
2022-08-25T01:34:41.201Z,20.30
2022-08-25T01:37:12.059Z,20.30
2022-08-25T01:39:41.793Z,20.20
2022-08-25T01:42:27.062Z,20.30
2022-08-25T01:44:54.519Z,20.30
2022-08-25T01:47:21.291Z,20.20
2022-08-25T01:49:48.645Z,20.20
2022-08-25T01:52:29.332Z,20.20
2022-08-25T01:54:56.326Z,20.10
2022-08-25T01:57:23.181Z,20.10
2022-08-25T01:59:50.229Z,20.10
2022-08-25T02:02:18.418Z,20.00
2022-08-25T02:04:45.439Z,20.00
2022-08-25T02:07:12.224Z,20.00
2022-08-25T02:09:39.523Z,19.90
2022-08-25T02:12:09.153Z,19.90
2022-08-25T02:14:36.734Z,19.80
2022-08-25T02:17:04.797Z,19.80
2022-08-25T02:19:32.103Z,19.70
2022-08-25T02:22:00.123Z,19.70
2022-08-25T02:24:26.983Z,19.70
2022-08-25T02:26:53.786Z,19.70
2022-08-25T02:29:21.079Z,19.70
2022-08-25T02:31:47.862Z,19.60
2022-08-25T02:34:15.213Z,19.60
2022-08-25T02:36:43.610Z,19.60
2022-08-25T02:39:11.688Z,19.60
2022-08-25T02:41:38.952Z,19.50
2022-08-25T02:44:07.270Z,19.50
2022-08-25T02:46:34.138Z,19.50
2022-08-25T02:49:00.919Z,19.40
2022-08-25T02:51:30.045Z,19.40
2022-08-25T02:53:58.558Z,19.40
2022-08-25T02:56:25.879Z,19.40
2022-08-25T02:58:53.051Z,19.40
2022-08-25T03:01:20.387Z,19.30
2022-08-25T03:03:50.654Z,19.30
2022-08-25T03:06:22.955Z,19.30
2022-08-25T03:08:50.195Z,19.30
2022-08-25T03:11:17.942Z,19.20
2022-08-25T03:13:44.762Z,19.20
2022-08-25T03:16:12.334Z,19.20
2022-08-25T03:18:41.657Z,19.10
2022-08-25T03:21:11.418Z,19.10
2022-08-25T03:23:38.426Z,19.10
2022-08-25T03:26:23.938Z,19.10
2022-08-25T03:28:50.708Z,19.00
2022-08-25T03:31:17.631Z,18.90
2022-08-25T03:33:44.492Z,18.90
2022-08-25T03:36:12.256Z,18.80
2022-08-25T03:38:40.965Z,18.80
2022-08-25T03:41:27.897Z,18.80
2022-08-25T03:43:56.697Z,18.70
2022-08-25T03:46:29.929Z,18.70
2022-08-25T03:48:57.183Z,18.80
2022-08-25T03:51:32.048Z,18.70
2022-08-25T03:53:59.348Z,18.70
2022-08-25T03:56:27.396Z,18.70
2022-08-25T03:58:54.953Z,18.70
2022-08-25T04:01:22.739Z,18.60
2022-08-25T04:03:49.918Z,18.60
2022-08-25T04:06:18.424Z,18.60
2022-08-25T04:08:45.542Z,18.50
2022-08-25T04:11:18.997Z,18.50
2022-08-25T04:13:46.760Z,18.50
2022-08-25T04:16:16.593Z,18.50
2022-08-25T04:18:44.472Z,18.50
2022-08-25T04:21:12.908Z,18.50
2022-08-25T04:23:42.347Z,18.40
2022-08-25T04:26:11.093Z,18.40
2022-08-25T04:28:38.812Z,18.30
2022-08-25T04:31:07.918Z,18.30
2022-08-25T04:33:35.884Z,18.30
2022-08-25T04:36:03.107Z,18.30
2022-08-25T04:38:30.768Z,18.30
2022-08-25T04:41:03.287Z,18.30
2022-08-25T04:43:31.636Z,18.20
2022-08-25T04:45:59.252Z,18.30
2022-08-25T04:48:26.452Z,18.30
2022-08-25T04:50:53.168Z,18.30
2022-08-25T04:53:22.003Z,18.20
2022-08-25T04:55:49.034Z,18.20
2022-08-25T04:58:16.989Z,18.20
2022-08-25T05:00:43.975Z,18.20
2022-08-25T05:03:10.783Z,18.20
2022-08-25T05:05:38.094Z,18.20
2022-08-25T05:08:08.048Z,18.20
2022-08-25T05:10:38.862Z,18.20
2022-08-25T05:13:18.329Z,18.20
2022-08-25T05:15:52.876Z,18.20
2022-08-25T05:18:21.535Z,18.20
2022-08-25T05:20:48.612Z,18.20
2022-08-25T05:23:15.684Z,18.20
2022-08-25T05:25:42.815Z,18.30
2022-08-25T05:28:13.866Z,18.30
2022-08-25T05:31:06.613Z,18.30
2022-08-25T05:37:50.537Z,18.40
2022-08-25T05:43:20.081Z,18.50
2022-08-25T05:52:41.901Z,18.60
2022-08-25T05:56:00.001Z,18.70
2022-08-25T06:10:27.533Z,18.90
2022-08-25T06:17:25.252Z,19.10
2022-08-25T06:27:13.267Z,19.30
2022-08-25T06:33:11.688Z,19.50
2022-08-25T06:47:04.734Z,19.80
2022-08-25T06:59:07.823Z,20.10
2022-08-25T07:10:24.629Z,20.40
2022-08-25T07:13:49.569Z,20.40
2022-08-25T07:20:31.440Z,20.60
2022-08-25T07:41:41.926Z,20.90
2022-08-25T08:14:39.650Z,21.50
2022-08-25T08:34:24.916Z,21.80
2022-08-25T08:49:33.783Z,22.00
2022-08-25T09:05:11.105Z,22.30
2022-08-25T09:08:35.353Z,22.30
2022-08-25T09:16:34.751Z,22.40
2022-08-25T09:26:41.136Z,22.50
2022-08-25T09:36:09.024Z,22.60
2022-08-25T09:47:09.427Z,22.80
2022-08-25T10:07:17.025Z,23.10
2022-08-25T10:13:23.558Z,23.30
2022-08-25T10:16:47.181Z,23.30
2022-08-25T10:32:26.339Z,23.70
2022-08-25T10:46:00.895Z,23.80
2022-08-25T10:49:19.096Z,23.90
2022-08-25T10:56:19.692Z,24.10
2022-08-25T10:59:06.187Z,24.20
2022-08-25T11:06:23.109Z,24.40
2022-08-25T11:16:48.718Z,24.40
2022-08-25T11:31:27.213Z,24.70
2022-08-25T11:33:55.542Z,24.80
2022-08-25T11:36:33.919Z,24.80
2022-08-25T11:39:04.138Z,24.90
2022-08-25T11:42:00.820Z,24.90
2022-08-25T11:44:53.175Z,24.90
2022-08-25T11:47:39.672Z,25.00
2022-08-25T11:50:35.198Z,25.00
2022-08-25T11:53:28.251Z,25.10
2022-08-25T11:56:02.810Z,25.10
2022-08-25T11:58:40.600Z,25.20
2022-08-25T12:01:45.256Z,25.30
2022-08-25T12:04:33.740Z,25.40
2022-08-25T12:07:06.905Z,25.50
2022-08-25T12:09:54.720Z,25.40
2022-08-25T12:12:56.193Z,25.50
2022-08-25T12:15:25.031Z,25.50
2022-08-25T12:18:11.919Z,25.50
2022-08-25T12:20:58.145Z,25.50
2022-08-25T12:23:32.837Z,25.50
2022-08-25T12:26:32.991Z,25.50
2022-08-25T12:29:27.523Z,25.50
2022-08-25T12:32:04.497Z,25.60
2022-08-25T12:35:11.669Z,25.70
2022-08-25T12:38:02.745Z,25.70
2022-08-25T12:40:37.456Z,25.80
2022-08-25T12:43:19.681Z,25.90
2022-08-25T12:45:49.744Z,25.90
2022-08-25T12:48:28.735Z,25.90
2022-08-25T12:51:00.973Z,26.00
2022-08-25T12:53:38.806Z,26.00
2022-08-25T12:56:25.106Z,26.00
2022-08-25T12:59:19.445Z,26.00
2022-08-25T13:02:22.077Z,26.10
2022-08-25T13:05:07.069Z,26.20
2022-08-25T13:07:53.084Z,26.30
2022-08-25T13:10:43.349Z,26.30
2022-08-25T13:13:32.580Z,26.40
2022-08-25T13:16:16.212Z,26.40
2022-08-25T13:18:42.942Z,26.50
2022-08-25T13:21:15.350Z,26.60
2022-08-25T13:23:45.798Z,26.70
2022-08-25T13:26:23.127Z,26.80
2022-08-25T13:28:57.883Z,26.90
2022-08-25T13:31:29.031Z,27.00
2022-08-25T13:34:05.379Z,27.00
2022-08-25T13:37:00.732Z,27.20
2022-08-25T13:39:45.944Z,27.30
2022-08-25T13:42:20.422Z,27.30
2022-08-25T13:44:56.421Z,27.40
2022-08-25T13:47:43.873Z,27.50
2022-08-25T13:50:27.290Z,27.60
2022-08-25T13:53:05.402Z,27.60
2022-08-25T13:55:50.422Z,27.70
2022-08-25T13:58:39.305Z,27.70
2022-08-25T14:01:22.903Z,27.60
2022-08-25T14:04:39.658Z,27.60
2022-08-25T14:07:20.870Z,27.60
2022-08-25T14:09:57.897Z,27.60
2022-08-25T14:12:33.866Z,27.60
2022-08-25T14:19:05.279Z,27.70
2022-08-25T14:21:59.209Z,27.70
2022-08-25T14:25:20.315Z,27.60
2022-08-25T14:28:25.493Z,27.60
2022-08-25T14:38:54.741Z,27.60
2022-08-25T14:41:30.312Z,27.80
2022-08-25T14:44:50.837Z,27.90
2022-08-25T14:58:50.778Z,29.10
2022-08-25T15:14:06.150Z,30.10
2022-08-25T15:17:07.231Z,30.20
2022-08-25T15:27:15.209Z,30.60
2022-08-25T15:30:47.724Z,30.70
2022-08-25T15:33:27.956Z,30.80
2022-08-25T15:44:32.646Z,31.50
2022-08-25T15:47:58.512Z,31.60
2022-08-25T15:50:58.351Z,31.70
2022-08-25T15:53:37.669Z,31.70
2022-08-25T16:00:19.500Z,31.70
2022-08-25T16:03:28.183Z,31.60
2022-08-25T16:13:52.861Z,31.50
2022-08-25T16:17:07.345Z,31.20
2022-08-25T16:19:48.788Z,30.80
2022-08-25T16:33:18.372Z,29.80
2022-08-25T16:40:38.059Z,30.00
2022-08-25T16:43:58.641Z,30.20
2022-08-25T16:57:24.798Z,30.50
2022-08-25T17:00:23.909Z,30.50
2022-08-25T17:03:25.745Z,30.40
2022-08-25T17:06:05.445Z,30.40
2022-08-25T17:09:32.117Z,30.30
2022-08-25T17:12:49.229Z,30.20
2022-08-25T17:15:27.782Z,30.00
2022-08-25T17:22:21.202Z,29.70
2022-08-25T17:25:17.942Z,29.50
2022-08-25T17:31:57.588Z,29.20
2022-08-25T17:35:37.473Z,29.10
2022-08-25T17:42:41.831Z,28.80
2022-08-25T17:45:43.150Z,28.70
2022-08-25T17:54:33.040Z,28.30
2022-08-25T17:57:32.470Z,28.20
2022-08-25T18:08:54.503Z,27.90
2022-08-25T18:12:18.210Z,27.70
2022-08-25T18:15:55.349Z,27.60
2022-08-25T18:22:04.399Z,27.30
2022-08-25T18:25:46.823Z,27.20
2022-08-25T18:32:45.303Z,27.00
2022-08-25T18:39:48.791Z,26.80
2022-08-25T18:42:48.780Z,26.70
2022-08-25T18:45:29.121Z,26.60
2022-08-25T18:52:55.095Z,26.50
2022-08-25T18:56:08.413Z,26.40
2022-08-25T19:06:20.212Z,26.20
2022-08-25T19:16:40.514Z,26.00
2022-08-25T19:24:04.918Z,25.80
2022-08-25T19:44:12.205Z,25.40
2022-08-25T19:54:44.424Z,25.10
2022-08-25T19:57:42.447Z,25.10
2022-08-25T20:01:02.393Z,25.00
2022-08-25T20:11:44.617Z,24.80
2022-08-25T20:14:21.562Z,24.70
2022-08-25T20:16:51.495Z,24.70
2022-08-25T20:26:32.168Z,24.60
2022-08-25T20:26:35.767Z,24.50
2022-08-25T20:32:33.840Z,24.30
2022-08-25T20:35:14.341Z,24.30
2022-08-25T20:41:17.263Z,24.20
2022-08-25T20:48:17.877Z,24.10
2022-08-25T20:50:44.708Z,24.10
2022-08-25T20:57:26.665Z,24.00
2022-08-25T20:59:55.447Z,23.90
2022-08-25T21:02:23.861Z,23.80
2022-08-25T21:04:51.733Z,23.80
2022-08-25T21:07:20.363Z,23.70
2022-08-25T21:09:47.566Z,23.70
2022-08-25T21:12:14.729Z,23.70
2022-08-25T21:14:42.115Z,23.60
2022-08-25T21:17:12.742Z,23.60
2022-08-25T21:19:40.194Z,23.50
2022-08-25T21:22:09.428Z,23.50
2022-08-25T21:24:38.323Z,23.40
2022-08-25T21:27:05.257Z,23.40
2022-08-25T21:29:33.044Z,23.30
2022-08-25T21:32:00.363Z,23.30
2022-08-25T21:34:29.034Z,23.20
2022-08-25T21:36:59.388Z,23.20
2022-08-25T21:39:29.509Z,23.20
2022-08-25T21:42:00.158Z,23.20
2022-08-25T21:44:27.764Z,23.20
2022-08-25T21:46:54.871Z,23.10
2022-08-25T21:49:23.279Z,23.10
2022-08-25T21:52:02.344Z,23.00
2022-08-25T21:54:31.664Z,23.00
2022-08-25T21:57:05.844Z,23.00
2022-08-25T21:59:37.600Z,22.90
2022-08-25T22:02:07.982Z,22.90
2022-08-25T22:04:37.062Z,22.90
2022-08-25T22:07:07.550Z,22.90
2022-08-25T22:09:35.359Z,22.80
2022-08-25T22:12:02.719Z,22.80
2022-08-25T22:14:29.434Z,22.70
2022-08-25T22:16:56.431Z,22.70
2022-08-25T22:19:23.536Z,22.70
2022-08-25T22:21:51.587Z,22.60
2022-08-25T22:24:19.421Z,22.50
2022-08-25T22:26:47.694Z,22.50
2022-08-25T22:29:15.853Z,22.40
2022-08-25T22:31:53.001Z,22.50
2022-08-25T22:34:19.955Z,22.40
2022-08-25T22:36:59.549Z,22.40
2022-08-25T22:39:27.739Z,22.40
2022-08-25T22:41:54.463Z,22.40
2022-08-25T22:44:23.519Z,22.30
2022-08-25T22:46:50.518Z,22.30
2022-08-25T22:49:18.003Z,22.30
2022-08-25T22:51:46.923Z,22.20
2022-08-25T22:54:15.109Z,22.20
2022-08-25T22:56:42.157Z,22.20
2022-08-25T22:59:11.418Z,22.20
2022-08-25T23:01:39.617Z,22.10
2022-08-25T23:04:07.010Z,22.10
2022-08-25T23:06:36.817Z,22.10
2022-08-25T23:09:06.155Z,22.00
2022-08-25T23:11:33.095Z,22.00
2022-08-25T23:14:00.490Z,22.00
2022-08-25T23:16:28.372Z,22.00
2022-08-25T23:18:55.264Z,21.90
2022-08-25T23:21:40.986Z,21.90
2022-08-25T23:24:10.947Z,21.80
2022-08-25T23:26:41.952Z,21.80
2022-08-25T23:29:17.851Z,21.80
2022-08-25T23:31:47.803Z,21.70
2022-08-25T23:34:16.521Z,21.70
2022-08-25T23:36:43.796Z,21.70
2022-08-25T23:39:11.303Z,21.60
2022-08-25T23:41:38.799Z,21.60
2022-08-25T23:44:06.695Z,21.50
2022-08-25T23:46:35.982Z,21.50
2022-08-25T23:49:04.783Z,21.50
2022-08-25T23:51:34.090Z,21.40
2022-08-25T23:54:05.972Z,21.40
2022-08-25T23:56:34.349Z,21.40
2022-08-25T23:59:03.463Z,21.30
